KROG

Rogers Executive - Carter Field Airport

Rogers, Arkansas, USA
METAR KROG 220458Z AUTO 29006KT 10SM CLR 21/14 A2985 RMK AO2 SLP095 T02110144 402830211
Observed Flight Rules
Jun-22 @ 04:58 UTC (40 minutes ago) Visual Flight Rules
Wind Visibility Clouds
290° at 6 knots 10 miles
  • Clear skies
Temperatures Readings
Current 21°C / 70°F
Dewpoint 14°C / 57°F
Humidity 64%
Altimeter 29.85" Hg
Pressure 1009.5 hPa
Elevation 415
METAR KROG 220458Z AUTO 29006KT 10SM CLR 21/14 A2985 RMK AO2 SLP095 T02110144 402830211
Observed Flight Rules
Jun-22 @ 04:58 UTC
(40 minutes ago)
VFR
Wind Visibility
290° at 6 knots 10 miles
Clouds
  • Clear skies
Temperature Dewpoint
21°C / 70°F 14°C / 57°F
Humidity Altimeter Pressure
64% 29.85" Hg 1009.5 hPa